sensor_id;sensor_type;location;lat;lon;timestamp;P1;durP1;ratioP1;P2;durP2;ratioP2
19609;SDS011;9952;47.122;-1.638;2022-09-09T00:02:38;9.87;;;2.07;;
19609;SDS011;9952;47.122;-1.638;2022-09-09T00:12:22;19.83;;;2.77;;
19609;SDS011;9952;47.122;-1.638;2022-09-09T00:17:12;19.50;;;3.00;;
19609;SDS011;9952;47.122;-1.638;2022-09-09T00:26:54;15.40;;;2.83;;
19609;SDS011;9952;47.122;-1.638;2022-09-09T00:31:41;20.30;;;2.77;;
19609;SDS011;9952;47.122;-1.638;2022-09-09T00:36:23;17.33;;;2.50;;
19609;SDS011;9952;47.122;-1.638;2022-09-09T00:41:11;19.00;;;2.73;;
19609;SDS011;9952;47.122;-1.638;2022-09-09T00:56:25;12.10;;;2.40;;
19609;SDS011;9952;47.122;-1.638;2022-09-09T01:01:13;18.00;;;3.10;;
19609;SDS011;9952;47.122;-1.638;2022-09-09T01:06:14;13.80;;;1.90;;
19609;SDS011;9952;47.122;-1.638;2022-09-09T01:10:59;18.83;;;2.33;;
19609;SDS011;9952;47.122;-1.638;2022-09-09T01:15:42;18.03;;;2.40;;
19609;SDS011;9952;47.122;-1.638;2022-09-09T01:20:29;19.70;;;2.70;;
19609;SDS011;9952;47.122;-1.638;2022-09-09T01:30:51;11.00;;;1.87;;
19609;SDS011;9952;47.122;-1.638;2022-09-09T01:40:36;14.43;;;2.37;;
19609;SDS011;9952;47.122;-1.638;2022-09-09T01:45:18;11.27;;;2.17;;
19609;SDS011;9952;47.122;-1.638;2022-09-09T01:49:59;9.80;;;1.70;;
19609;SDS011;9952;47.122;-1.638;2022-09-09T01:54:41;16.40;;;1.83;;
19609;SDS011;9952;47.122;-1.638;2022-09-09T01:59:44;7.73;;;1.63;;
19609;SDS011;9952;47.122;-1.638;2022-09-09T02:04:42;15.23;;;2.27;;
19609;SDS011;9952;47.122;-1.638;2022-09-09T02:09:34;13.23;;;2.33;;
19609;SDS011;9952;47.122;-1.638;2022-09-09T02:14:20;9.57;;;2.13;;
19609;SDS011;9952;47.122;-1.638;2022-09-09T02:19:14;13.50;;;2.50;;
19609;SDS011;9952;47.122;-1.638;2022-09-09T02:24:11;17.13;;;2.63;;
19609;SDS011;9952;47.122;-1.638;2022-09-09T02:28:55;16.93;;;2.47;;
19609;SDS011;9952;47.122;-1.638;2022-09-09T02:33:43;12.23;;;2.47;;
19609;SDS011;9952;47.122;-1.638;2022-09-09T02:38:28;17.77;;;3.03;;
19609;SDS011;9952;47.122;-1.638;2022-09-09T02:43:13;16.87;;;2.43;;
19609;SDS011;9952;47.122;-1.638;2022-09-09T02:57:45;20.00;;;3.27;;
19609;SDS011;9952;47.122;-1.638;2022-09-09T03:02:28;19.10;;;2.83;;
19609;SDS011;9952;47.122;-1.638;2022-09-09T03:07:09;20.17;;;3.20;;
19609;SDS011;9952;47.122;-1.638;2022-09-09T03:11:51;19.90;;;2.53;;
19609;SDS011;9952;47.122;-1.638;2022-09-09T03:16:32;17.00;;;2.63;;
19609;SDS011;9952;47.122;-1.638;2022-09-09T03:21:14;19.17;;;2.90;;
19609;SDS011;9952;47.122;-1.638;2022-09-09T03:25:55;15.67;;;3.77;;
19609;SDS011;9952;47.122;-1.638;2022-09-09T03:30:37;17.30;;;3.27;;
19609;SDS011;9952;47.122;-1.638;2022-09-09T03:35:18;16.33;;;3.03;;
19609;SDS011;9952;47.122;-1.638;2022-09-09T03:39:59;17.03;;;5.27;;
19609;SDS011;9952;47.122;-1.638;2022-09-09T03:44:40;14.10;;;3.53;;
19609;SDS011;9952;47.122;-1.638;2022-09-09T03:49:21;10.77;;;3.00;;
19609;SDS011;9952;47.122;-1.638;2022-09-09T03:54:03;11.87;;;1.63;;
19609;SDS011;9952;47.122;-1.638;2022-09-09T03:58:48;5.60;;;1.07;;
19609;SDS011;9952;47.122;-1.638;2022-09-09T04:03:29;5.70;;;0.93;;
19609;SDS011;9952;47.122;-1.638;2022-09-09T04:08:10;5.87;;;0.97;;
19609;SDS011;9952;47.122;-1.638;2022-09-09T04:12:51;9.63;;;1.10;;
19609;SDS011;9952;47.122;-1.638;2022-09-09T04:17:32;10.17;;;1.50;;
19609;SDS011;9952;47.122;-1.638;2022-09-09T04:22:13;10.50;;;1.80;;
19609;SDS011;9952;47.122;-1.638;2022-09-09T04:26:54;8.30;;;1.67;;
19609;SDS011;9952;47.122;-1.638;2022-09-09T04:31:35;11.20;;;1.13;;
19609;SDS011;9952;47.122;-1.638;2022-09-09T04:36:17;9.33;;;2.13;;
19609;SDS011;9952;47.122;-1.638;2022-09-09T04:41:01;8.67;;;1.47;;
19609;SDS011;9952;47.122;-1.638;2022-09-09T04:45:42;5.43;;;1.60;;
19609;SDS011;9952;47.122;-1.638;2022-09-09T04:50:24;11.83;;;2.47;;
19609;SDS011;9952;47.122;-1.638;2022-09-09T04:55:05;10.13;;;2.10;;
19609;SDS011;9952;47.122;-1.638;2022-09-09T04:59:47;14.73;;;2.30;;
19609;SDS011;9952;47.122;-1.638;2022-09-09T05:04:28;8.37;;;1.90;;
19609;SDS011;9952;47.122;-1.638;2022-09-09T05:09:08;6.87;;;1.77;;
19609;SDS011;9952;47.122;-1.638;2022-09-09T05:13:49;8.30;;;1.80;;
19609;SDS011;9952;47.122;-1.638;2022-09-09T05:18:30;10.40;;;1.97;;
19609;SDS011;9952;47.122;-1.638;2022-09-09T05:23:11;7.73;;;1.63;;
19609;SDS011;9952;47.122;-1.638;2022-09-09T05:27:53;7.60;;;1.70;;
19609;SDS011;9952;47.122;-1.638;2022-09-09T05:32:34;9.67;;;1.90;;
19609;SDS011;9952;47.122;-1.638;2022-09-09T05:37:15;5.77;;;1.40;;
19609;SDS011;9952;47.122;-1.638;2022-09-09T05:41:56;9.33;;;1.70;;
19609;SDS011;9952;47.122;-1.638;2022-09-09T05:46:37;9.53;;;1.87;;
19609;SDS011;9952;47.122;-1.638;2022-09-09T05:51:19;7.37;;;1.47;;
19609;SDS011;9952;47.122;-1.638;2022-09-09T05:56:05;11.70;;;2.13;;
19609;SDS011;9952;47.122;-1.638;2022-09-09T06:00:47;8.03;;;1.70;;
19609;SDS011;9952;47.122;-1.638;2022-09-09T06:05:28;10.43;;;1.50;;
19609;SDS011;9952;47.122;-1.638;2022-09-09T06:10:09;12.13;;;1.67;;
19609;SDS011;9952;47.122;-1.638;2022-09-09T06:14:50;7.03;;;1.80;;
19609;SDS011;9952;47.122;-1.638;2022-09-09T06:19:31;9.13;;;1.97;;
19609;SDS011;9952;47.122;-1.638;2022-09-09T06:24:12;9.07;;;1.83;;
19609;SDS011;9952;47.122;-1.638;2022-09-09T06:28:57;7.03;;;1.37;;
19609;SDS011;9952;47.122;-1.638;2022-09-09T06:33:39;7.60;;;1.27;;
19609;SDS011;9952;47.122;-1.638;2022-09-09T06:38:21;9.13;;;1.57;;
19609;SDS011;9952;47.122;-1.638;2022-09-09T06:43:03;5.37;;;1.10;;
19609;SDS011;9952;47.122;-1.638;2022-09-09T06:47:44;5.23;;;1.00;;
19609;SDS011;9952;47.122;-1.638;2022-09-09T06:52:25;7.43;;;1.73;;
19609;SDS011;9952;47.122;-1.638;2022-09-09T06:57:06;9.23;;;1.10;;
19609;SDS011;9952;47.122;-1.638;2022-09-09T07:01:47;7.53;;;1.40;;
19609;SDS011;9952;47.122;-1.638;2022-09-09T07:06:28;5.53;;;1.27;;
19609;SDS011;9952;47.122;-1.638;2022-09-09T07:11:11;10.30;;;1.70;;
19609;SDS011;9952;47.122;-1.638;2022-09-09T07:15:52;7.17;;;1.37;;
19609;SDS011;9952;47.122;-1.638;2022-09-09T07:20:32;13.03;;;2.03;;
19609;SDS011;9952;47.122;-1.638;2022-09-09T07:25:13;11.67;;;1.50;;
19609;SDS011;9952;47.122;-1.638;2022-09-09T07:29:57;11.17;;;1.60;;
19609;SDS011;9952;47.122;-1.638;2022-09-09T07:34:37;11.13;;;1.60;;
19609;SDS011;9952;47.122;-1.638;2022-09-09T07:39:18;10.93;;;1.43;;
19609;SDS011;9952;47.122;-1.638;2022-09-09T07:43:59;11.80;;;2.67;;
19609;SDS011;9952;47.122;-1.638;2022-09-09T07:48:47;5.93;;;1.77;;
19609;SDS011;9952;47.122;-1.638;2022-09-09T07:53:32;10.43;;;1.97;;
19609;SDS011;9952;47.122;-1.638;2022-09-09T07:58:15;9.03;;;1.77;;
19609;SDS011;9952;47.122;-1.638;2022-09-09T08:02:55;14.97;;;1.80;;
19609;SDS011;9952;47.122;-1.638;2022-09-09T08:07:36;16.30;;;2.50;;
19609;SDS011;9952;47.122;-1.638;2022-09-09T08:12:17;15.20;;;2.37;;
19609;SDS011;9952;47.122;-1.638;2022-09-09T08:16:58;12.30;;;1.97;;
19609;SDS011;9952;47.122;-1.638;2022-09-09T08:21:39;12.67;;;2.03;;
19609;SDS011;9952;47.122;-1.638;2022-09-09T08:26:22;11.47;;;2.53;;
19609;SDS011;9952;47.122;-1.638;2022-09-09T08:31:05;14.37;;;1.87;;
19609;SDS011;9952;47.122;-1.638;2022-09-09T08:35:56;12.83;;;1.90;;
19609;SDS011;9952;47.122;-1.638;2022-09-09T08:40:39;14.17;;;2.13;;
19609;SDS011;9952;47.122;-1.638;2022-09-09T08:45:31;13.67;;;2.07;;
19609;SDS011;9952;47.122;-1.638;2022-09-09T08:50:34;10.23;;;1.87;;
19609;SDS011;9952;47.122;-1.638;2022-09-09T08:55:21;10.00;;;1.77;;
19609;SDS011;9952;47.122;-1.638;2022-09-09T09:00:12;12.90;;;2.23;;
19609;SDS011;9952;47.122;-1.638;2022-09-09T09:04:58;11.90;;;2.13;;
19609;SDS011;9952;47.122;-1.638;2022-09-09T09:10:00;13.70;;;2.07;;
19609;SDS011;9952;47.122;-1.638;2022-09-09T09:15:10;14.03;;;1.90;;
19609;SDS011;9952;47.122;-1.638;2022-09-09T09:20:05;10.60;;;1.67;;
19609;SDS011;9952;47.122;-1.638;2022-09-09T09:24:53;6.40;;;1.17;;
19609;SDS011;9952;47.122;-1.638;2022-09-09T09:29:54;13.00;;;1.83;;
19609;SDS011;9952;47.122;-1.638;2022-09-09T09:34:38;9.80;;;1.60;;
19609;SDS011;9952;47.122;-1.638;2022-09-09T09:39:23;7.60;;;1.60;;
19609;SDS011;9952;47.122;-1.638;2022-09-09T09:44:05;11.37;;;1.77;;
19609;SDS011;9952;47.122;-1.638;2022-09-09T09:49:03;8.67;;;1.70;;
19609;SDS011;9952;47.122;-1.638;2022-09-09T09:53:45;8.87;;;1.80;;
19609;SDS011;9952;47.122;-1.638;2022-09-09T09:58:27;7.40;;;1.37;;
19609;SDS011;9952;47.122;-1.638;2022-09-09T10:03:31;5.93;;;1.60;;
19609;SDS011;9952;47.122;-1.638;2022-09-09T10:08:19;11.77;;;1.67;;
19609;SDS011;9952;47.122;-1.638;2022-09-09T10:13:06;8.70;;;1.43;;
19609;SDS011;9952;47.122;-1.638;2022-09-09T10:22:50;9.30;;;1.63;;
19609;SDS011;9952;47.122;-1.638;2022-09-09T10:32:49;7.80;;;1.90;;
19609;SDS011;9952;47.122;-1.638;2022-09-09T10:37:58;8.70;;;1.20;;
19609;SDS011;9952;47.122;-1.638;2022-09-09T10:58:17;7.43;;;1.43;;
19609;SDS011;9952;47.122;-1.638;2022-09-09T11:03:23;6.93;;;1.53;;
19609;SDS011;9952;47.122;-1.638;2022-09-09T11:08:09;8.07;;;1.10;;
19609;SDS011;9952;47.122;-1.638;2022-09-09T11:12:59;5.47;;;1.30;;
19609;SDS011;9952;47.122;-1.638;2022-09-09T11:17:49;4.57;;;1.17;;
19609;SDS011;9952;47.122;-1.638;2022-09-09T11:27:29;5.03;;;0.93;;
19609;SDS011;9952;47.122;-1.638;2022-09-09T11:42:23;4.23;;;1.10;;
19609;SDS011;9952;47.122;-1.638;2022-09-09T11:47:14;3.97;;;1.00;;
19609;SDS011;9952;47.122;-1.638;2022-09-09T11:52:24;6.23;;;1.00;;
19609;SDS011;9952;47.122;-1.638;2022-09-09T11:57:25;5.13;;;1.03;;
19609;SDS011;9952;47.122;-1.638;2022-09-09T12:21:58;4.43;;;1.07;;
19609;SDS011;9952;47.122;-1.638;2022-09-09T12:36:53;3.60;;;0.97;;
19609;SDS011;9952;47.122;-1.638;2022-09-09T12:41:39;4.53;;;0.87;;
19609;SDS011;9952;47.122;-1.638;2022-09-09T12:46:27;4.90;;;0.80;;
19609;SDS011;9952;47.122;-1.638;2022-09-09T12:51:25;7.87;;;0.93;;
19609;SDS011;9952;47.122;-1.638;2022-09-09T12:56:09;6.47;;;0.80;;
19609;SDS011;9952;47.122;-1.638;2022-09-09T13:01:01;6.23;;;0.97;;
19609;SDS011;9952;47.122;-1.638;2022-09-09T13:05:48;5.20;;;0.93;;
19609;SDS011;9952;47.122;-1.638;2022-09-09T13:10:31;8.93;;;0.97;;
19609;SDS011;9952;47.122;-1.638;2022-09-09T13:15:19;6.20;;;1.33;;
19609;SDS011;9952;47.122;-1.638;2022-09-09T13:20:03;4.60;;;0.67;;
19609;SDS011;9952;47.122;-1.638;2022-09-09T13:24:44;4.37;;;0.77;;
19609;SDS011;9952;47.122;-1.638;2022-09-09T13:29:25;5.73;;;1.10;;
19609;SDS011;9952;47.122;-1.638;2022-09-09T13:34:12;8.63;;;1.03;;
19609;SDS011;9952;47.122;-1.638;2022-09-09T13:38:57;7.10;;;1.20;;
19609;SDS011;9952;47.122;-1.638;2022-09-09T13:43:43;3.53;;;0.70;;
19609;SDS011;9952;47.122;-1.638;2022-09-09T13:48:27;8.97;;;1.40;;
19609;SDS011;9952;47.122;-1.638;2022-09-09T13:53:09;5.83;;;0.90;;
19609;SDS011;9952;47.122;-1.638;2022-09-09T13:57:54;6.80;;;1.20;;
19609;SDS011;9952;47.122;-1.638;2022-09-09T14:02:35;10.33;;;1.50;;
19609;SDS011;9952;47.122;-1.638;2022-09-09T14:07:16;2.47;;;0.67;;
19609;SDS011;9952;47.122;-1.638;2022-09-09T14:11:58;5.63;;;0.93;;
19609;SDS011;9952;47.122;-1.638;2022-09-09T14:16:40;5.03;;;1.07;;
19609;SDS011;9952;47.122;-1.638;2022-09-09T14:21:21;6.43;;;1.13;;
19609;SDS011;9952;47.122;-1.638;2022-09-09T14:26:01;5.90;;;1.20;;
19609;SDS011;9952;47.122;-1.638;2022-09-09T14:30:43;3.53;;;0.80;;
19609;SDS011;9952;47.122;-1.638;2022-09-09T14:35:24;2.97;;;0.70;;
19609;SDS011;9952;47.122;-1.638;2022-09-09T14:40:05;2.57;;;0.67;;
19609;SDS011;9952;47.122;-1.638;2022-09-09T14:44:47;4.97;;;1.10;;
19609;SDS011;9952;47.122;-1.638;2022-09-09T14:49:28;4.80;;;0.80;;
19609;SDS011;9952;47.122;-1.638;2022-09-09T14:54:08;7.43;;;1.10;;
19609;SDS011;9952;47.122;-1.638;2022-09-09T14:58:52;14.23;;;1.40;;
19609;SDS011;9952;47.122;-1.638;2022-09-09T15:03:35;8.20;;;1.13;;
19609;SDS011;9952;47.122;-1.638;2022-09-09T15:08:17;6.70;;;1.30;;
19609;SDS011;9952;47.122;-1.638;2022-09-09T15:12:57;4.97;;;0.80;;
19609;SDS011;9952;47.122;-1.638;2022-09-09T15:17:38;7.83;;;0.70;;
19609;SDS011;9952;47.122;-1.638;2022-09-09T15:22:19;4.87;;;0.87;;
19609;SDS011;9952;47.122;-1.638;2022-09-09T15:27:00;7.07;;;1.00;;
19609;SDS011;9952;47.122;-1.638;2022-09-09T15:31:42;6.53;;;0.77;;
19609;SDS011;9952;47.122;-1.638;2022-09-09T15:36:23;5.97;;;1.27;;
19609;SDS011;9952;47.122;-1.638;2022-09-09T15:41:06;6.63;;;0.83;;
19609;SDS011;9952;47.122;-1.638;2022-09-09T15:45:49;9.53;;;1.60;;
19609;SDS011;9952;47.122;-1.638;2022-09-09T15:50:36;8.10;;;1.10;;
19609;SDS011;9952;47.122;-1.638;2022-09-09T15:55:17;5.83;;;1.00;;
19609;SDS011;9952;47.122;-1.638;2022-09-09T15:59:59;9.83;;;1.57;;
19609;SDS011;9952;47.122;-1.638;2022-09-09T16:04:40;8.03;;;1.43;;
19609;SDS011;9952;47.122;-1.638;2022-09-09T16:09:21;7.67;;;1.10;;
19609;SDS011;9952;47.122;-1.638;2022-09-09T16:14:02;9.93;;;1.83;;
19609;SDS011;9952;47.122;-1.638;2022-09-09T16:18:44;5.13;;;1.10;;
19609;SDS011;9952;47.122;-1.638;2022-09-09T16:23:27;12.47;;;1.77;;
19609;SDS011;9952;47.122;-1.638;2022-09-09T16:28:07;10.57;;;1.17;;
19609;SDS011;9952;47.122;-1.638;2022-09-09T16:32:48;9.63;;;1.20;;
19609;SDS011;9952;47.122;-1.638;2022-09-09T16:37:29;8.03;;;1.40;;
19609;SDS011;9952;47.122;-1.638;2022-09-09T16:42:10;9.30;;;1.40;;
19609;SDS011;9952;47.122;-1.638;2022-09-09T16:46:51;5.90;;;1.27;;
19609;SDS011;9952;47.122;-1.638;2022-09-09T16:51:36;8.87;;;1.20;;
19609;SDS011;9952;47.122;-1.638;2022-09-09T16:56:19;6.43;;;1.23;;
19609;SDS011;9952;47.122;-1.638;2022-09-09T17:01:05;6.10;;;0.87;;
19609;SDS011;9952;47.122;-1.638;2022-09-09T17:05:46;9.53;;;1.00;;
19609;SDS011;9952;47.122;-1.638;2022-09-09T17:10:27;6.20;;;1.13;;
19609;SDS011;9952;47.122;-1.638;2022-09-09T17:15:07;10.83;;;1.50;;
19609;SDS011;9952;47.122;-1.638;2022-09-09T17:19:48;2.30;;;0.60;;
19609;SDS011;9952;47.122;-1.638;2022-09-09T17:24:30;5.87;;;0.73;;
19609;SDS011;9952;47.122;-1.638;2022-09-09T17:29:11;6.73;;;0.80;;
19609;SDS011;9952;47.122;-1.638;2022-09-09T17:33:52;8.20;;;0.90;;
19609;SDS011;9952;47.122;-1.638;2022-09-09T17:38:34;7.17;;;0.80;;
19609;SDS011;9952;47.122;-1.638;2022-09-09T17:43:15;7.77;;;1.30;;
19609;SDS011;9952;47.122;-1.638;2022-09-09T17:47:56;7.63;;;1.13;;
19609;SDS011;9952;47.122;-1.638;2022-09-09T17:52:37;9.20;;;1.57;;
19609;SDS011;9952;47.122;-1.638;2022-09-09T17:57:18;4.33;;;0.53;;
19609;SDS011;9952;47.122;-1.638;2022-09-09T18:02:00;5.57;;;1.10;;
19609;SDS011;9952;47.122;-1.638;2022-09-09T18:06:42;7.20;;;0.90;;
19609;SDS011;9952;47.122;-1.638;2022-09-09T18:11:29;8.27;;;1.20;;
19609;SDS011;9952;47.122;-1.638;2022-09-09T18:16:14;4.80;;;0.97;;
19609;SDS011;9952;47.122;-1.638;2022-09-09T18:21:05;5.53;;;1.00;;
19609;SDS011;9952;47.122;-1.638;2022-09-09T18:25:47;7.30;;;1.30;;
19609;SDS011;9952;47.122;-1.638;2022-09-09T18:30:28;6.43;;;1.03;;
19609;SDS011;9952;47.122;-1.638;2022-09-09T18:35:10;8.17;;;0.80;;
19609;SDS011;9952;47.122;-1.638;2022-09-09T18:39:50;11.40;;;1.30;;
19609;SDS011;9952;47.122;-1.638;2022-09-09T18:44:33;2.77;;;0.83;;
19609;SDS011;9952;47.122;-1.638;2022-09-09T18:49:14;7.60;;;1.07;;
19609;SDS011;9952;47.122;-1.638;2022-09-09T18:53:57;8.80;;;1.20;;
19609;SDS011;9952;47.122;-1.638;2022-09-09T18:58:43;5.50;;;1.07;;
19609;SDS011;9952;47.122;-1.638;2022-09-09T19:03:25;8.27;;;1.30;;
19609;SDS011;9952;47.122;-1.638;2022-09-09T19:08:07;7.53;;;1.07;;
19609;SDS011;9952;47.122;-1.638;2022-09-09T19:12:48;6.40;;;1.23;;
19609;SDS011;9952;47.122;-1.638;2022-09-09T19:17:29;12.13;;;1.40;;
19609;SDS011;9952;47.122;-1.638;2022-09-09T19:22:10;6.00;;;0.87;;
19609;SDS011;9952;47.122;-1.638;2022-09-09T19:26:53;5.20;;;1.20;;
19609;SDS011;9952;47.122;-1.638;2022-09-09T19:31:37;8.90;;;1.17;;
19609;SDS011;9952;47.122;-1.638;2022-09-09T19:36:17;7.07;;;0.93;;
19609;SDS011;9952;47.122;-1.638;2022-09-09T19:41:05;4.70;;;1.17;;
19609;SDS011;9952;47.122;-1.638;2022-09-09T19:45:58;9.13;;;1.30;;
19609;SDS011;9952;47.122;-1.638;2022-09-09T19:50:43;5.10;;;1.30;;
19609;SDS011;9952;47.122;-1.638;2022-09-09T19:55:24;6.37;;;1.60;;
19609;SDS011;9952;47.122;-1.638;2022-09-09T20:00:05;6.53;;;1.07;;
19609;SDS011;9952;47.122;-1.638;2022-09-09T20:04:48;4.10;;;0.80;;
19609;SDS011;9952;47.122;-1.638;2022-09-09T20:09:28;8.50;;;1.00;;
19609;SDS011;9952;47.122;-1.638;2022-09-09T20:14:09;6.13;;;0.90;;
19609;SDS011;9952;47.122;-1.638;2022-09-09T20:18:52;8.33;;;1.33;;
19609;SDS011;9952;47.122;-1.638;2022-09-09T20:23:36;8.40;;;1.50;;
19609;SDS011;9952;47.122;-1.638;2022-09-09T20:28:17;7.07;;;1.03;;
19609;SDS011;9952;47.122;-1.638;2022-09-09T20:32:59;8.97;;;1.40;;
19609;SDS011;9952;47.122;-1.638;2022-09-09T20:37:40;9.70;;;1.30;;
19609;SDS011;9952;47.122;-1.638;2022-09-09T20:42:21;12.13;;;1.27;;
19609;SDS011;9952;47.122;-1.638;2022-09-09T20:47:02;5.63;;;1.20;;
19609;SDS011;9952;47.122;-1.638;2022-09-09T20:51:46;7.23;;;1.73;;
19609;SDS011;9952;47.122;-1.638;2022-09-09T20:56:30;9.63;;;1.20;;
19609;SDS011;9952;47.122;-1.638;2022-09-09T21:01:14;5.57;;;1.37;;
19609;SDS011;9952;47.122;-1.638;2022-09-09T21:05:58;6.20;;;1.00;;
19609;SDS011;9952;47.122;-1.638;2022-09-09T21:10:42;8.57;;;1.47;;
19609;SDS011;9952;47.122;-1.638;2022-09-09T21:15:25;5.17;;;1.10;;
19609;SDS011;9952;47.122;-1.638;2022-09-09T21:20:06;10.70;;;1.50;;
19609;SDS011;9952;47.122;-1.638;2022-09-09T21:24:48;7.57;;;1.33;;
19609;SDS011;9952;47.122;-1.638;2022-09-09T21:29:29;4.03;;;0.93;;
19609;SDS011;9952;47.122;-1.638;2022-09-09T21:34:10;7.23;;;1.20;;
19609;SDS011;9952;47.122;-1.638;2022-09-09T21:38:52;8.53;;;1.10;;
19609;SDS011;9952;47.122;-1.638;2022-09-09T21:43:33;13.37;;;1.50;;
19609;SDS011;9952;47.122;-1.638;2022-09-09T21:48:15;12.43;;;1.30;;
19609;SDS011;9952;47.122;-1.638;2022-09-09T21:52:57;7.20;;;1.10;;
19609;SDS011;9952;47.122;-1.638;2022-09-09T21:57:38;10.30;;;1.20;;
19609;SDS011;9952;47.122;-1.638;2022-09-09T22:02:18;7.57;;;1.40;;
19609;SDS011;9952;47.122;-1.638;2022-09-09T22:07:00;5.50;;;1.13;;
19609;SDS011;9952;47.122;-1.638;2022-09-09T22:11:42;6.67;;;1.00;;
19609;SDS011;9952;47.122;-1.638;2022-09-09T22:16:23;12.07;;;1.73;;
19609;SDS011;9952;47.122;-1.638;2022-09-09T22:21:08;7.90;;;1.60;;
19609;SDS011;9952;47.122;-1.638;2022-09-09T22:25:54;12.27;;;1.20;;
19609;SDS011;9952;47.122;-1.638;2022-09-09T22:30:36;7.47;;;1.20;;
19609;SDS011;9952;47.122;-1.638;2022-09-09T22:35:17;8.03;;;1.27;;
19609;SDS011;9952;47.122;-1.638;2022-09-09T22:39:58;8.90;;;0.97;;
19609;SDS011;9952;47.122;-1.638;2022-09-09T22:44:40;5.30;;;1.30;;
19609;SDS011;9952;47.122;-1.638;2022-09-09T22:49:21;6.80;;;1.37;;
19609;SDS011;9952;47.122;-1.638;2022-09-09T22:54:03;8.73;;;1.50;;
19609;SDS011;9952;47.122;-1.638;2022-09-09T22:58:45;5.90;;;1.40;;
19609;SDS011;9952;47.122;-1.638;2022-09-09T23:03:27;6.07;;;1.10;;
19609;SDS011;9952;47.122;-1.638;2022-09-09T23:08:10;5.80;;;1.30;;
19609;SDS011;9952;47.122;-1.638;2022-09-09T23:12:50;9.90;;;1.80;;
19609;SDS011;9952;47.122;-1.638;2022-09-09T23:17:31;4.70;;;1.43;;
19609;SDS011;9952;47.122;-1.638;2022-09-09T23:22:13;7.97;;;0.93;;
19609;SDS011;9952;47.122;-1.638;2022-09-09T23:26:54;13.67;;;2.07;;
19609;SDS011;9952;47.122;-1.638;2022-09-09T23:31:35;6.90;;;1.40;;
19609;SDS011;9952;47.122;-1.638;2022-09-09T23:36:17;8.27;;;1.30;;
19609;SDS011;9952;47.122;-1.638;2022-09-09T23:41:00;5.20;;;1.10;;
19609;SDS011;9952;47.122;-1.638;2022-09-09T23:45:41;5.00;;;1.20;;
19609;SDS011;9952;47.122;-1.638;2022-09-09T23:50:22;7.93;;;1.47;;
19609;SDS011;9952;47.122;-1.638;2022-09-09T23:55:03;8.43;;;1.40;;
19609;SDS011;9952;47.122;-1.638;2022-09-09T23:59:47;6.37;;;1.13;;
